M I D A S
Marine Information and Data Acquisition System
Tripno 585 of the Zeeleeuw from 2003-09-08 06:55:49 to 2003-09-08 15:36:28
Back to CruiseResearch ActivitiesStationsMapUnderway DataData graphs

EquipmentUnitsComment
TimeDGPSUTC
LatitudeDGPSDM.mWGS84
LongitudeDGPSDM.mWGS84
HeadingGyrodeg 
SOGDGPSknotsSpeed over ground
COGDGPSdegCourse over ground
DepthEcho soundermeters200 kHz
Missing or incorrect values are displayed as -999
Navigation data collected by the RV Zeeleeuw from 2003-09-08 06:55:49 to 2003-09-08 15:36:28
Time Latitude Longitude Heading SOG COG Depth
2003-09-08 06:56:51 51°13.81 2°55.65 337.5 6.4 333 11.1
2003-09-08 06:57:51 51°13.92 2°55.57 339.6 8.3 335 10.9
2003-09-08 06:58:51 51°14.05 2°55.47 340.6 8.6 335 10.6
2003-09-08 06:59:51 51°14.18 2°55.37 332.6 8.6 328 11
2003-09-08 07:00:51 51°14.28 2°55.22 317.2 8.5 313 11
2003-09-08 07:01:51 51°14.38 2°55.04 316.4 8.6 312 10.8
2003-09-08 07:02:51 51°14.5 2°54.9 335.2 10.3 327 9.8
2003-09-08 07:03:51 51°14.65 2°54.74 334.5 11.5 325 9.5
2003-09-08 07:04:51 51°14.82 2°54.55 335.6 12.8 327 9.2
2003-09-08 07:05:51 51°14.98 2°54.33 307.7 12.8 296 8.5
2003-09-08 07:06:51 51°15.04 2°54 295 13.4 287 9
2003-09-08 07:07:51 51°15.09 2°53.65 288.7 13.6 281 9.5
2003-09-08 07:08:51 51°15.14 2°53.3 289 13.7 281 10.1
2003-09-08 07:09:51 51°15.19 2°52.94 289.8 13.7 282 10.4
2003-09-08 07:10:51 51°15.23 2°52.59 290.1 13.6 282 11.3
2003-09-08 07:11:51 51°15.27 2°52.23 286.5 13.7 279 11.7
2003-09-08 07:12:51 51°15.3 2°51.87 286.3 13.7 278 12.3
2003-09-08 07:13:51 51°15.32 2°51.5 281.7 13.9 273 12.5
2003-09-08 07:14:51 51°15.33 2°51.14 273.8 13.9 267 12.8
2003-09-08 07:15:51 51°15.31 2°50.77 273.2 13.7 266 13.1
2003-09-08 07:16:51 51°15.28 2°50.41 266.9 13.8 261 13.1
2003-09-08 07:17:51 51°15.24 2°50.05 267.5 13.9 262 13.3
2003-09-08 07:18:51 51°15.21 2°49.69 268.5 13.8 262 13.2
2003-09-08 07:19:51 51°15.18 2°49.33 268.7 13.7 262 13.1
2003-09-08 07:20:51 51°15.14 2°48.97 268.3 13.7 262 13.2
2003-09-08 07:21:51 51°15.11 2°48.61 268.1 13.7 262 13.1
2003-09-08 07:22:51 51°15.08 2°48.25 268.3 13.7 262 13.3
2003-09-08 07:23:51 51°15.05 2°47.89 268.2 13.7 262 13.1
2003-09-08 07:24:51 51°15.02 2°47.53 268 13.6 262 11.6
2003-09-08 07:25:51 51°14.99 2°47.18 268.1 13.4 262 9.8
2003-09-08 07:26:51 51°14.96 2°46.82 269.2 13.4 263 9.5
2003-09-08 07:27:51 51°14.93 2°46.47 269.7 13.5 264 9.6
2003-09-08 07:28:51 51°14.9 2°46.11 268.4 13.6 263 10.7
2003-09-08 07:29:51 51°14.87 2°45.75 267.8 13.7 262 12.1
2003-09-08 07:30:51 51°14.84 2°45.39 268.3 13.7 262 13.5
2003-09-08 07:31:51 51°14.81 2°45.03 268.5 13.7 263 14.6
2003-09-08 07:32:51 51°14.78 2°44.67 267.4 13.8 261 15.5
2003-09-08 07:33:51 51°14.74 2°44.29 268 14.6 262 16.3
2003-09-08 07:34:51 51°14.71 2°43.91 268.5 14.7 262 16.8
2003-09-08 07:35:51 51°14.67 2°43.52 268 14.7 262 17.9
2003-09-08 07:36:51 51°14.64 2°43.14 269.1 14.6 263 18.4
2003-09-08 07:37:51 51°14.6 2°42.76 268.1 14.4 262 18.1
2003-09-08 07:38:51 51°14.57 2°42.38 267.9 14.3 262 16.8
2003-09-08 07:39:51 51°14.54 2°42 268.4 14.2 262 14.9
2003-09-08 07:40:51 51°14.51 2°41.63 268.3 14.1 262 14.2
2003-09-08 07:41:51 51°14.48 2°41.26 272.5 14 267 14
2003-09-08 07:42:51 51°14.49 2°40.89 281.2 14 274 14
2003-09-08 07:43:51 51°14.54 2°40.53 295.5 13.8 289 14
2003-09-08 07:44:51 51°14.64 2°40.2 308.8 13.6 302 13.4
2003-09-08 07:45:51 51°14.78 2°39.92 319.6 13.6 313 14.7
2003-09-08 07:46:51 51°14.96 2°39.71 334.4 13.4 327 15.1
2003-09-08 07:47:51 51°15.17 2°39.62 3.9 12.9 357 17.3
2003-09-08 07:48:51 51°15.38 2°39.62 9 12.9 2 18.7
2003-09-08 07:49:51 51°15.6 2°39.66 13.6 12.8 7 19.9
2003-09-08 07:50:51 51°15.8 2°39.72 19.1 12.8 12 20.3
2003-09-08 07:51:51 51°16.01 2°39.8 19.6 12.8 12 21
2003-09-08 07:52:51 51°16.22 2°39.87 19.1 12.8 12 21.4
2003-09-08 07:53:51 51°16.43 2°39.94 18.7 12.8 11 21.5
2003-09-08 07:54:51 51°16.64 2°40.01 19.4 12.8 13 21.3
2003-09-08 07:55:51 51°16.85 2°40.1 22.6 12.8 16 20.7
2003-09-08 07:56:51 51°17.03 2°40.2 23.5 9 18 20
2003-09-08 07:57:51 51°17.13 2°40.23 18.6 4.5 12 19.8
2003-09-08 07:58:51 51°17.18 2°40.27 37.7 2.9 33 19.3
2003-09-08 07:59:51 51°17.22 2°40.32 44.6 2.8 45 19.8
2003-09-08 08:00:51 51°17.26 2°40.37 39 2.9 38 20.5
2003-09-08 08:01:51 51°17.3 2°40.4 22 2.3 18 20.3
2003-09-08 08:02:51 51°17.31 2°40.4 8.7 0.3 328 20.2
2003-09-08 08:03:51 51°17.31 2°40.39 2.9 0.4 308 20.3
2003-09-08 08:04:51 51°17.32 2°40.38 359.9 0.4 304 19.7
2003-09-08 08:05:51 51°17.32 2°40.37 354.9 0.6 314 19.6
2003-09-08 08:06:51 51°17.38 2°40.35 0.3 5.8 354 18.6
2003-09-08 08:07:51 51°17.45 2°40.44 76.5 6.1 82 19.3
2003-09-08 08:08:51 51°17.4 2°40.58 129.1 5.8 132 21.3
2003-09-08 08:09:51 51°17.41 2°40.69 27.1 5.1 20 22.3
2003-09-08 08:10:51 51°17.46 2°40.59 280.2 7 268 19.9
2003-09-08 08:11:51 51°17.44 2°40.49 237.9 0.6 206 20
2003-09-08 08:12:53 51°17.43 2°40.49 217.9 0.7 216 -999
2003-09-08 08:13:55 51°17.42 2°40.47 223.8 1.9 220 -999
2003-09-08 08:14:51 51°17.41 2°40.38 308.3 5.2 304 16.9
2003-09-08 08:15:51 51°17.49 2°40.41 63.1 6.3 66 18.7
2003-09-08 08:16:51 51°17.52 2°40.62 79.1 8.8 78 20.9
2003-09-08 08:17:51 51°17.58 2°40.73 25.1 2.9 19 21.2
2003-09-08 08:18:51 51°17.59 2°40.73 341.3 0.8 307 20.9
2003-09-08 08:19:51 51°17.6 2°40.71 334 0.6 294 20.8
2003-09-08 08:20:51 51°17.62 2°40.69 343.4 3.9 341 20.3
2003-09-08 08:21:51 51°17.7 2°40.78 54.3 7.4 51 20.6
2003-09-08 08:22:51 51°17.75 2°40.87 51.4 0.5 79 21.6
2003-09-08 08:23:51 51°17.74 2°40.88 59.4 0.5 113 21.7
2003-09-08 08:24:51 51°17.75 2°40.91 65.3 2.4 65 22.1
2003-09-08 08:25:51 51°17.8 2°40.95 12 5.3 7 22.4
2003-09-08 08:26:51 51°17.86 2°40.97 11.9   162 21.2
2003-09-08 08:27:51 51°17.86 2°40.98 0.8 0.1 90 21.4
2003-09-08 08:28:51 51°17.86 2°40.98 0.7 1.3   21.1
2003-09-08 08:29:51 51°17.91 2°41.01 46.8 4.3 48 21.8
2003-09-08 08:30:51 51°17.97 2°41.1 36.3 4.5 36 22.2
2003-09-08 08:31:51 51°18 2°41.13 20.8 0.4 51 22.6
2003-09-08 08:32:51 51°18 2°41.13 21.3 0.4 47 22.8
2003-09-08 08:33:49 51°18.01 2°41.14 4.3 1.7 357 22.9
2003-09-08 08:34:51 51°18.04 2°41.08 282.5 4.6 274 21.8
2003-09-08 08:35:51 51°18.06 2°40.93 296.9 5.1 291 17.4
2003-09-08 08:36:51 51°18.07 2°40.89 340.8 0.2 234 19.5
2003-09-08 08:37:51 51°18.07 2°40.89 356.4 0.1 156 19.4
2003-09-08 08:38:51 51°18.09 2°40.88 331.3 1.8 325 18.9
2003-09-08 08:39:51 51°18.09 2°40.8 251.2 4.2 235 19
2003-09-08 08:40:51 51°18.02 2°40.78 177.8 4.3 171 19
2003-09-08 08:41:51 51°17.95 2°40.79 195.3 3 181 20
2003-09-08 08:42:51 51°17.94 2°40.8 193.2 0.5 118 -999
2003-09-08 08:43:51 51°17.94 2°40.81 194.5 0.6 130 20.1
2003-09-08 08:44:51 51°17.91 2°40.82 198.7 3.2 186 19.9
2003-09-08 08:45:51 51°17.86 2°40.74 247.7 5.4 240 17.8
2003-09-08 08:46:51 51°17.81 2°40.62 243.5 4.6 232 14.8
2003-09-08 08:47:51 51°17.79 2°40.59 237.8 0.4 132 17.9
2003-09-08 08:48:51 51°17.78 2°40.6 236.7 0.5 149 -999
2003-09-08 08:49:51 51°17.77 2°40.6 236.6 1.6 214 17.5
2003-09-08 08:50:51 51°17.73 2°40.54 236 4.4 225 18.1
2003-09-08 08:51:51 51°17.68 2°40.45 232.2 4.1 221 18.2
2003-09-08 08:52:51 51°17.65 2°40.43 220.6 0.5 157 18.1
2003-09-08 08:53:51 51°17.64 2°40.44 217.1 0.6 156 18.2
2003-09-08 08:54:51 51°17.63 2°40.44 217 0.8 175 18.4
2003-09-08 08:55:51 51°17.6 2°40.42 211.2 3.3 198 18.4
2003-09-08 08:56:51 51°17.55 2°40.37 239.9 3.1 227 15.6
2003-09-08 08:57:51 51°17.53 2°40.35 270.7 0.3 189 17.7
2003-09-08 08:58:51 51°17.53 2°40.35 287.3 1.1 278 17.5
2003-09-08 08:59:51 51°17.49 2°40.28 221.4 5.5 211 16.4
2003-09-08 09:00:51 51°17.43 2°40.21 222.7 4.2 210 17.8
2003-09-08 09:01:51 51°17.38 2°40.19 214.2 0.9 167 17.7
2003-09-08 09:02:51 51°17.37 2°40.2 215.7 0.8 161 17.8
2003-09-08 09:03:51 51°17.33 2°40.17 224.6 4.5 217 17.1
2003-09-08 09:04:51 51°17.27 2°40.08 233.5 4.5 224 17.9
2003-09-08 09:05:51 51°17.23 2°40.03 237.9 0.8 198 17.4
2003-09-08 09:06:51 51°17.22 2°40.02 250.1 0.4 210 17.4
2003-09-08 09:07:51 51°17.22 2°40.02 260.8 0.2 223 16.8
2003-09-08 09:08:51 51°17.23 2°39.99 307.5 3 320 17.6
2003-09-08 09:09:51 51°17.28 2°39.91 308.2 5.1 311 16.3
2003-09-08 09:10:51 51°17.34 2°39.84 331.4 3.1 347 15.2
2003-09-08 09:11:51 51°17.35 2°39.85 15.2 1 57 15.2
2003-09-08 09:12:51 51°17.38 2°39.89 10.5 4.3 22 16.1
2003-09-08 09:13:51 51°17.46 2°39.96 29.7 5 37 16.5
2003-09-08 09:14:51 51°17.49 2°40.01 19.5 1.3 87 15
2003-09-08 09:15:51 51°17.5 2°40.05 9.1 1.6 55 7.4
2003-09-08 09:16:51 51°17.55 2°40.08 11.1 5.4 18 16.7
2003-09-08 09:17:51 51°17.63 2°40.12 1.8 2.5 26 17.7
2003-09-08 09:18:51 51°17.64 2°40.15 2.9 1.2 68 -999
2003-09-08 09:19:51 51°17.65 2°40.18 0.1 2.1 32 15.6
2003-09-08 09:20:51 51°17.7 2°40.21 354.2 3.9 13 15.3
2003-09-08 09:21:51 51°17.75 2°40.24 359.6 1.5 59 15.2
2003-09-08 09:22:51 51°17.75 2°40.27 9.4 1.1 76 -999
2003-09-08 09:23:51 51°17.78 2°40.3 5.5 3.6 21 18.4
2003-09-08 09:24:51 51°17.86 2°40.33 9.3 6.3 21 18.6
2003-09-08 09:25:51 51°17.92 2°40.4 31 1.8 69 17.1
2003-09-08 09:26:51 51°17.92 2°40.44 21.2 1.2 88 -999
2003-09-08 09:27:51 51°17.93 2°40.48 17.4 2.9 43 18
2003-09-08 09:28:51 51°17.99 2°40.52 4.9 4.5 19 19
2003-09-08 09:29:51 51°18.04 2°40.56 7.9 1.3 77 19.4
2003-09-08 09:30:51 51°18.05 2°40.6 5 1.5 79 -999
2003-09-08 09:31:51 51°18.06 2°40.63 357.6 2.4 29 19.1
2003-09-08 09:32:51 51°18.12 2°40.66 3.4 4.3 19 17.5
2003-09-08 09:33:51 51°18.17 2°40.7 5.5 1.3 85 20
2003-09-08 09:34:51 51°18.17 2°40.73 5 1.1 79 -999
2003-09-08 09:35:51 51°18.17 2°40.76 5.8 1.4 74 19.9
2003-09-08 09:36:51 51°18.18 2°40.8 10.3 1.5 72 18.8
2003-09-08 09:37:51 51°18.19 2°40.83 11.8 1.6 68 16.2
2003-09-08 09:38:51 51°18.2 2°40.87 11.3 1.6 63 18.5
2003-09-08 09:39:51 51°18.23 2°40.91 350.3 3.3 10 20
2003-09-08 09:40:51 51°18.28 2°40.85 286.6 4 288 17.5
2003-09-08 09:41:51 51°18.26 2°40.74 255.9 5.2 253 20.9
2003-09-08 09:42:51 51°18.25 2°40.59 263.6 5.8 261 22.4
2003-09-08 09:43:51 51°18.24 2°40.46 270.2 3.2 270 22.1
2003-09-08 09:44:51 51°18.23 2°40.43 235.2 0.6 209 22.2
2003-09-08 09:45:51 51°18.22 2°40.44 221.2 0.6 161 22.5
2003-09-08 09:46:51 51°18.2 2°40.43 206.3 3.2 187 22.8
2003-09-08 09:47:51 51°18.13 2°40.38 245.1 4.2 241 21
2003-09-08 09:48:51 51°18.11 2°40.34 230 0.8 175 21.5
2003-09-08 09:49:51 51°18.1 2°40.35 215.2 1 143 21.5
2003-09-08 09:50:51 51°18.08 2°40.37 214.9 1.1 159 21.5
2003-09-08 09:51:51 51°18.04 2°40.34 225.4 4.4 212 21.1
2003-09-08 09:52:51 51°17.99 2°40.25 259.3 4.3 263 21.4
2003-09-08 09:53:51 51°18 2°40.18 277.9 0.6 316 22.3
2003-09-08 09:54:51 51°18 2°40.18 256.6 0.2 37 22.2
2003-09-08 09:55:51 51°18 2°40.19 252.4 0.2 145 22
2003-09-08 09:56:51 51°17.99 2°40.19 226.8 1.8 199 22.3
2003-09-08 09:57:51 51°17.93 2°40.12 229.9 4.6 217 21.1
2003-09-08 09:58:51 51°17.88 2°40.06 233.4 3.3 218 21.2
2003-09-08 09:59:51 51°17.85 2°40.04 231.5 0.8 165 19.7
2003-09-08 10:00:51 51°17.84 2°40.05 225 0.9 151 19.8
2003-09-08 10:01:51 51°17.82 2°40.05 219 1.6 181 20
2003-09-08 10:02:51 51°17.79 2°40.01 255.8 3.2 249 18.4
2003-09-08 10:03:51 51°17.75 2°39.93 229.6 4.4 214 19.8
2003-09-08 10:04:51 51°17.71 2°39.91 208.9 1.3 144 19.2
2003-09-08 10:05:51 51°17.7 2°39.94 185.1 1.4 100 18.4
2003-09-08 10:06:51 51°17.69 2°39.97 193.8 2.4 156 16.6
2003-09-08 10:07:51 51°17.66 2°39.94 256.4 3 247 17
2003-09-08 10:08:51 51°17.63 2°39.82 254 5.5 247 16.1
2003-09-08 10:09:51 51°17.59 2°39.75 230.1 2.2 205 16.8
2003-09-08 10:10:51 51°17.57 2°39.76 226 1 151 15.7
2003-09-08 10:11:51 51°17.55 2°39.76 222 2.4 196 15.4
2003-09-08 10:12:51 51°17.5 2°39.7 234.7 4.6 221 15.2
2003-09-08 10:13:51 51°17.45 2°39.65 226.8 3.1 208 15.8
2003-09-08 10:14:51 51°17.44 2°39.63 267.2 0.3 250 15.7
2003-09-08 10:15:51 51°17.44 2°39.63 279.4 0.4 12 15.4
2003-09-08 10:16:51 51°17.45 2°39.61 279.9 1.8 288 14.8
2003-09-08 10:17:51 51°17.42 2°39.55 217.5 4.6 199 15
2003-09-08 10:18:51 51°17.34 2°39.5 223.2 4.2 207 14.1
2003-09-08 10:19:51 51°17.31 2°39.47 240.6 0.7 189 14.3
2003-09-08 10:20:51 51°17.3 2°39.47 255.8 0.2 160 13.9
2003-09-08 10:21:51 51°17.3 2°39.47 265 0.6 268 13.9
2003-09-08 10:22:51 51°17.32 2°39.4 294.9 4 302 14.7
2003-09-08 10:23:51 51°17.35 2°39.3 288.1 3.8 295 16.5
2003-09-08 10:24:51 51°17.37 2°39.26 314.7 1.3 3 19.4
2003-09-08 10:25:51 51°17.4 2°39.27 335.6 1.6 27 19.4
2003-09-08 10:26:51 51°17.42 2°39.29 338.2 1.7 33 20.2
2003-09-08 10:27:51 51°17.44 2°39.32 333.8 1.5 35 20.3
2003-09-08 10:28:51 51°17.46 2°39.34 326.7 1.5 38 21
2003-09-08 10:29:51 51°17.48 2°39.36 318.6 1.4 41 20.3
2003-09-08 10:30:51 51°17.5 2°39.39 311.1 1.3 44 20.9
2003-09-08 10:31:51 51°17.51 2°39.41 304.5 1.2 46 20.7
2003-09-08 10:32:51 51°17.53 2°39.43 297.1 1.2 48 20.8
2003-09-08 10:33:51 51°17.54 2°39.46 288.9 1.2 52 20.9
2003-09-08 10:34:51 51°17.55 2°39.48 279.5 1.1 53 20.9
2003-09-08 10:35:51 51°17.56 2°39.51 270.8 1.1 62 20.8
2003-09-08 10:36:51 51°17.57 2°39.53 263.2 1.1 62 21.1
2003-09-08 10:37:51 51°17.58 2°39.56 255.4 1.1 64 20.4
2003-09-08 10:38:51 51°17.59 2°39.59 248 1.2 70 19.9
2003-09-08 10:39:51 51°17.59 2°39.62 240.9 1.2 74 19.3
2003-09-08 10:40:51 51°17.6 2°39.64 233.7 1.2 73 19.2
2003-09-08 10:41:51 51°17.6 2°39.68 226.7 1.2 74 18.2
2003-09-08 10:42:51 51°17.61 2°39.71 220.2 1.3 77 16.9
2003-09-08 10:43:51 51°17.61 2°39.74 212 1.3 79 18.1
2003-09-08 10:44:51 51°17.62 2°39.78 203.4 1.4 79 17.2
2003-09-08 10:45:51 51°17.62 2°39.81 193.4 1.4 81 16
2003-09-08 10:46:51 51°17.63 2°39.85 185.8 1.4 81 16.6
2003-09-08 10:47:51 51°17.63 2°39.88 177.2 1.4 80 17.6
2003-09-08 10:48:51 51°17.63 2°39.92 168 1.4 82 17.1
2003-09-08 10:49:51 51°17.64 2°39.96 156.5 1.5 81 15.5
2003-09-08 10:50:51 51°17.64 2°40 146.5 1.5 82 18.1
2003-09-08 10:51:51 51°17.64 2°40.04 137.9 1.5 83 17.2
2003-09-08 10:52:51 51°17.65 2°40.08 127.8 1.7 82 14.9
2003-09-08 10:53:51 51°17.65 2°40.13 122.2 1.7 80 18.2
2003-09-08 10:54:51 51°17.66 2°40.17 117.8 1.8 84 16.8
2003-09-08 10:55:51 51°17.63 2°40.26 157.6 6 146 17.6
2003-09-08 10:56:51 51°17.5 2°40.23 208.4 10.9 201 18
2003-09-08 10:57:51 51°17.35 2°40.03 234.4 12.2 229 17.2
2003-09-08 10:58:51 51°17.22 2°39.77 242.9 12.3 239 16.3
2003-09-08 10:59:51 51°17.12 2°39.48 244.5 12.4 242 15.2
2003-09-08 11:00:51 51°17.09 2°39.21 278.3 7.1 284 13.1
2003-09-08 11:01:51 51°17.14 2°39.13 333.9 2.7   13.2
2003-09-08 11:02:51 51°17.16 2°39.16 17.4 1.5 55 13.8
2003-09-08 11:03:51 51°17.18 2°39.2 34.1 1.6 64 12.5
2003-09-08 11:04:51 51°17.19 2°39.23 38.9 1.5 63 13.7
2003-09-08 11:05:51 51°17.2 2°39.27 37.2 1.5 62 13.7
2003-09-08 11:06:51 51°17.22 2°39.31 33.6 3.2 46 13.1
2003-09-08 11:07:51 51°17.29 2°39.34 346.4 5.2 355 13.7
2003-09-08 11:08:51 51°17.34 2°39.24 266.2 5.9 259 17.3
2003-09-08 11:09:51 51°17.25 2°39.21 159.2 7.1 136 14.5
2003-09-08 11:10:51 51°17.17 2°39.44 136.9 12.2 133 14.3
2003-09-08 11:11:51 51°17.01 2°39.41 229.5 10.9 226 14.9
2003-09-08 11:12:51 51°16.97 2°39.14 289.4 11.2 294 13
2003-09-08 11:13:51 51°17.14 2°39.04 17.1 12.5 24 13.3
2003-09-08 11:14:51 51°17.21 2°39.28 102.2 7.5 96 14.1
2003-09-08 11:15:51 51°17.15 2°39.38 190.9 4.6 179 14.5
2003-09-08 11:16:51 51°17.11 2°39.28 256.9 5.5 254 13.2
2003-09-08 11:17:51 51°17.09 2°39.16 261.6 3.2 260 12.6
2003-09-08 11:18:51 51°17.08 2°39.14 214.7 1 164 12.6
2003-09-08 11:19:51 51°17.06 2°39.15 207 1.2 152 13.3
2003-09-08 11:20:51 51°17.05 2°39.17 202.4 1.1 130 12.8
2003-09-08 11:21:51 51°17.04 2°39.2 194.4 1.2 118 13.2
2003-09-08 11:22:51 51°17.03 2°39.23 189.6 1.2 110 13.7
2003-09-08 11:23:51 51°17 2°39.28 159.3 5.5 138 13.9
2003-09-08 11:24:51 51°16.98 2°39.47 77.4 8.3 66 15.1
2003-09-08 11:25:51 51°17.1 2°39.54 355.4 9.6 356 15.3
2003-09-08 11:26:51 51°17.25 2°39.43 308.6 8.8 308 13.9
2003-09-08 11:27:51 51°17.26 2°39.3 248.5 2.9 244 14.2
2003-09-08 11:28:51 51°17.25 2°39.29 225.8 0.8 181 13.9
2003-09-08 11:29:51 51°17.24 2°39.28 244.4 0.4 212 14
2003-09-08 11:30:51 51°17.23 2°39.28 250.5 0.5 235 13.7
2003-09-08 11:31:51 51°17.23 2°39.26 246.1 0.5 237 13.6
2003-09-08 11:32:51 51°17.22 2°39.25 242.5 0.7 228 13.4
2003-09-08 11:33:51 51°17.22 2°39.24 255.1 0.7 266 13.2
2003-09-08 11:34:51 51°17.22 2°39.22 266.9 0.8 295 13.5
2003-09-08 11:35:51 51°17.22 2°39.2 274.2 0.9 306 13.9
2003-09-08 11:36:51 51°17.23 2°39.18 276.6 1 307 13.3
2003-09-08 11:37:51 51°17.25 2°39.15 278.1 1.1 310 13.5
2003-09-08 11:38:51 51°17.26 2°39.13 279.3 0.9 319 15.1
2003-09-08 11:39:51 51°17.27 2°39.12 283.8 1 341 16.2
2003-09-08 11:40:51 51°17.29 2°39.12 287.8 1 355 17.9
2003-09-08 11:41:51 51°17.3 2°39.11 289.2 1 7 19.2
2003-09-08 11:42:51 51°17.32 2°39.12 297.4 1.1 18 19.5
2003-09-08 11:43:51 51°17.35 2°39.12 331.3 3.3 358 19.9
2003-09-08 11:44:51 51°17.42 2°39.18 52.5 5.9 52 20.6
2003-09-08 11:45:51 51°17.38 2°39.34 163.3 7.4 156 16.4
2003-09-08 11:46:51 51°17.31 2°39.3 236.2 3.1 227 13.5
2003-09-08 11:47:51 51°17.29 2°39.25 248.8 0.4 231 14.4
2003-09-08 11:48:51 51°17.28 2°39.25 242.7 0.2 199 14.6
2003-09-08 11:49:51 51°17.28 2°39.25 242.7 0.1 169 14.3
2003-09-08 11:50:51 51°17.28 2°39.25 241.8 0.2 91 14.6
2003-09-08 11:51:51 51°17.28 2°39.26 240.5 0.2 90 13.9
2003-09-08 11:52:51 51°17.28 2°39.26 241.3 0.2 94 13.8
2003-09-08 11:53:51 51°17.27 2°39.22 270 4.3 280 14.3
2003-09-08 11:54:51 51°17.36 2°39.15 0.2 8 8 20
2003-09-08 11:55:51 51°17.48 2°39.29 48.9 8.6 47 20.4
2003-09-08 11:56:51 51°17.5 2°39.45 123.1 5.7 111 19.6
2003-09-08 11:57:51 51°17.48 2°39.53 174.4 1.5 67 15.5
2003-09-08 11:58:51 51°17.48 2°39.55 211 1.6 182 14.9
2003-09-08 11:59:51 51°17.47 2°39.47 273.6 5.2 276 18.2
2003-09-08 12:00:51 51°17.47 2°39.34 255.4 2 257 20.7
2003-09-08 12:01:51 51°17.46 2°39.33 228.6 0.4 194 20.4
2003-09-08 12:02:51 51°17.46 2°39.33 231.3 0.1 180 20
2003-09-08 12:03:51 51°17.46 2°39.33 229.7 0.2 146 19.9
2003-09-08 12:04:51 51°17.45 2°39.34 226.4 0.3 140 20.4
2003-09-08 12:05:51 51°17.45 2°39.34 220 0.5 130 20.1
2003-09-08 12:06:51 51°17.44 2°39.35 216.4 0.5 120 19.2
2003-09-08 12:07:51 51°17.44 2°39.36 222.8 0.4 100 19.2
2003-09-08 12:08:51 51°17.44 2°39.38 230 0.5 82 18.7
2003-09-08 12:09:51 51°17.44 2°39.4 229.6 2.2 56 18.6
2003-09-08 12:10:51 51°17.45 2°39.42 225.3 1.9 208 17.7
2003-09-08 12:11:51 51°17.43 2°39.41 231.1 0.6 202 17
2003-09-08 12:12:51 51°17.42 2°39.4 237.1 0.3 208 16.2
2003-09-08 12:13:51 51°17.42 2°39.4 240.9 0.1 180 16.4
2003-09-08 12:14:51 51°17.42 2°39.4 232.5 0.3 106 16.2
2003-09-08 12:15:51 51°17.42 2°39.41 229.4 0.3 105 16.4
2003-09-08 12:16:51 51°17.42 2°39.42 228.1 0.4 99 16.3
2003-09-08 12:17:51 51°17.42 2°39.43 224.1 0.5 89 15.2
2003-09-08 12:18:51 51°17.4 2°39.45 177 2.9 146 14.6
2003-09-08 12:19:51 51°17.37 2°39.55 99.2 5.8 87 13.6
2003-09-08 12:20:51 51°17.41 2°39.79 84.4 11.1 78 16.5
2003-09-08 12:21:51 51°17.47 2°40.07 85.5 9.1 81 16.7
2003-09-08 12:22:51 51°17.47 2°40.2 71 1 73 17.3
2003-09-08 12:23:51 51°17.46 2°40.16 77.3 2.6 253 -999
2003-09-08 12:24:51 51°17.46 2°40.14 84.1 0.2 333 16.2
2003-09-08 12:25:51 51°17.46 2°40.14 96.2 0.3 12 16.3
2003-09-08 12:26:51 51°17.47 2°40.14 103.7 0.5 29 15.6
2003-09-08 12:27:51 51°17.48 2°40.15 110.5 0.6 44 14.9
2003-09-08 12:28:51 51°17.48 2°40.16 116.4 0.7 50 15.8
2003-09-08 12:29:51 51°17.49 2°40.18 123 0.6 57 16.8
2003-09-08 12:30:51 51°17.49 2°40.19 129.7 0.7 59 17.3
2003-09-08 12:31:51 51°17.5 2°40.21 128.4 1.4 94 17.4
2003-09-08 12:32:51 51°17.52 2°40.3 45.7 5.6 40 18
2003-09-08 12:33:51 51°17.6 2°40.27 295.3 5.2 292 17.2
2003-09-08 12:34:51 51°17.58 2°40.13 260.9 4.4 262 16.6
2003-09-08 12:35:51 51°17.57 2°40.06 252.6 0.6 257 13.3
2003-09-08 12:36:51 51°17.57 2°40.05 231.8 0.4 214 14.6
2003-09-08 12:37:51 51°17.57 2°40.04 233.5 0.2 196 15.1
2003-09-08 12:38:51 51°17.57 2°40.04 243.3 0.1 160 15
2003-09-08 12:39:51 51°17.57 2°40.05 254 0.1 27 15.1
2003-09-08 12:40:51 51°17.57 2°40.05 266.3 0.3 24 14.8
2003-09-08 12:41:51 51°17.57 2°40.05 276.9 0.3 24 15
2003-09-08 12:42:51 51°17.58 2°40.05 286.6 0.5 26 14.3
2003-09-08 12:43:51 51°17.59 2°40.06 296 0.6 28 13.5
2003-09-08 12:44:51 51°17.6 2°40.07 305.2 0.6 26 13.8
2003-09-08 12:45:51 51°17.6 2°40.07 315 0.6 22 14.9
2003-09-08 12:46:51 51°17.62 2°40.08 325.6 1.3 352 15.1
2003-09-08 12:47:51 51°17.69 2°40 319.3 9 319 16.7
2003-09-08 12:48:51 51°17.82 2°39.82 315.4 10.7 316 20.7
2003-09-08 12:49:51 51°17.95 2°39.62 315 10 318 22.7
2003-09-08 12:50:51 51°18.04 2°39.54 327.1 3.4 344 28.1
2003-09-08 12:51:51 51°18.06 2°39.56 296.3 1.4 50 28.4
2003-09-08 12:52:51 51°18.08 2°39.57 267.8 0.8 357 28.4
2003-09-08 12:53:51 51°18.09 2°39.57 241.2 0.3 5 28.3
2003-09-08 12:54:51 51°18.09 2°39.58 226.6 0.1 110 28.3
2003-09-08 12:55:51 51°18.09 2°39.58 216.8 0.4 137 28.4
2003-09-08 12:56:51 51°18.08 2°39.59 207.9 0.5 143 28.2
2003-09-08 12:57:51 51°18.07 2°39.6 197.6 0.8 135 28
2003-09-08 12:58:51 51°18.06 2°39.62 184.3 1.1 122 27.4
2003-09-08 12:59:51 51°18.05 2°39.65 175.6 1.1 120 26.5
2003-09-08 13:00:51 51°18.04 2°39.68 163.9 2.2 127 25.6
2003-09-08 13:01:51 51°18.03 2°39.78 98.6 5 82 18
2003-09-08 13:02:51 51°18.09 2°39.95 55 11.7 52 14.4
2003-09-08 13:03:51 51°18.21 2°40.23 50.6 13 44 18.7
2003-09-08 13:04:51 51°18.37 2°40.37 16.9 7.7 19 17.7
2003-09-08 13:05:51 51°18.41 2°40.4 4 1.6 151 -999
2003-09-08 13:06:51 51°18.39 2°40.42 7.6 1.2 46 -999
2003-09-08 13:07:51 51°18.4 2°40.44 9 0.9 52 18.4
2003-09-08 13:08:51 51°18.41 2°40.46 13.2 0.8 66 17.7
2003-09-08 13:09:51 51°18.41 2°40.48 24.8 0.8 79 16.6
2003-09-08 13:10:51 51°18.42 2°40.5 18.8 0.8 58 16
2003-09-08 13:11:51 51°18.42 2°40.52 348.2 0.9 62 16.4
2003-09-08 13:12:51 51°18.43 2°40.54 319.4 0.8 70 20.7
2003-09-08 13:13:51 51°18.43 2°40.56 306.8 0.9 84 20
2003-09-08 13:14:51 51°18.44 2°40.59 299.7 1.1 83 18.2
2003-09-08 13:15:51 51°18.44 2°40.61 292.2 0.8 71 15.8
2003-09-08 13:16:51 51°18.44 2°40.63 287 0.6 49 12.9
2003-09-08 13:17:51 51°18.45 2°40.63 288.1 0.5 357 15.4
2003-09-08 13:18:51 51°18.46 2°40.63 295 0.8 341 13.9
2003-09-08 13:19:51 51°18.47 2°40.62 297.3 1 328 14.2
2003-09-08 13:20:51 51°18.49 2°40.6 277.8 2.1 295 17
2003-09-08 13:21:51 51°18.55 2°40.46 320.9 9.6 323 14
2003-09-08 13:22:51 51°18.71 2°40.29 344.7 13.2 346 23.1
2003-09-08 13:23:51 51°18.93 2°40.21 354.2 11.7 355 23.7
2003-09-08 13:24:51 51°19.06 2°40.27 31.5 5.8 26 22.4
2003-09-08 13:25:51 51°19.11 2°40.3 29.7 0.4 26 21.6
2003-09-08 13:26:51 51°19.12 2°40.31 33.2 0.8 20 21.7
2003-09-08 13:27:51 51°19.13 2°40.32 36.3 0.9 24 21.2
2003-09-08 13:28:51 51°19.14 2°40.32 41.1 0.9 23 21.3
2003-09-08 13:29:51 51°19.16 2°40.34 33.8 1.3 29 20.8
2003-09-08 13:30:51 51°19.18 2°40.36 13.7 1.5 23 20.2
2003-09-08 13:31:51 51°19.21 2°40.37 347.7 1.6 9 19.4
2003-09-08 13:32:51 51°19.23 2°40.37 316.8 1.4 351 19
2003-09-08 13:33:51 51°19.25 2°40.35 284.8 1.1 334 19
2003-09-08 13:34:51 51°19.25 2°40.31 230.2 4.4 221 20.4
2003-09-08 13:35:51 51°19.15 2°40.34 151 5.5 140 20.7
2003-09-08 13:36:51 51°19.12 2°40.37 199.2 0.5 149 20.9
2003-09-08 13:37:51 51°19.12 2°40.37 213 0.1 189 20.9
2003-09-08 13:38:51 51°19.12 2°40.37 216.2 0.1 288 20.9
2003-09-08 13:39:51 51°19.12 2°40.37 220.4 0.2 311 20.8
2003-09-08 13:40:51 51°19.12 2°40.36 226.5 0.3 313 21
2003-09-08 13:41:51 51°19.13 2°40.35 236.6 0.5 316 20.9
2003-09-08 13:42:51 51°19.13 2°40.35 249.5 0.5 329 20.6
2003-09-08 13:43:51 51°19.14 2°40.34 260.5 0.6 333 21
2003-09-08 13:44:51 51°19.15 2°40.33 273.2 0.7 343 20.6
2003-09-08 13:45:51 51°19.17 2°40.31 299.7 3.3 315 20.8
2003-09-08 13:46:51 51°19.25 2°40.31 31.9 5.9 30 20.2
2003-09-08 13:47:51 51°19.32 2°40.42 53.7 5.7 46 13.2
2003-09-08 13:48:51 51°19.38 2°40.52 48.5 4.6 40 17.9
2003-09-08 13:49:51 51°19.41 2°40.55 50.8 0.8 12 16.1
2003-09-08 13:50:51 51°19.43 2°40.56 57.1 0.8 18 -999
2003-09-08 13:51:51 51°19.44 2°40.56 60.6 0.5 356 16.7
2003-09-08 13:52:51 51°19.45 2°40.56 66.8 0.5 339 17.7
2003-09-08 13:53:51 51°19.45 2°40.55 79.8 0.5 326 17.9
2003-09-08 13:54:51 51°19.46 2°40.54 96.2 0.6 327 18
2003-09-08 13:55:51 51°19.47 2°40.53 110.5 0.6 337 18.3
2003-09-08 13:56:51 51°19.48 2°40.53 116.3 0.4 353 18.7
2003-09-08 13:57:51 51°19.48 2°40.53 112.9 1 82 19.1
2003-09-08 13:58:51 51°19.53 2°40.63 42.7 8.7 34 17.3
2003-09-08 13:59:51 51°19.68 2°40.78 41.3 11.5 33 17.2
2003-09-08 14:00:51 51°19.85 2°40.93 39.1 11.6 34 20.5
2003-09-08 14:01:51 51°20 2°41.12 46.3 9.4 40 22.4
2003-09-08 14:02:51 51°20.06 2°41.21 57.3 2.2 41 20.9
2003-09-08 14:03:52 51°20.07 2°41.21 90.5 1.4 288 -999
2003-09-08 14:04:52 51°20.08 2°41.14 92.6 3.1 280 -999
2003-09-08 14:05:51 51°20.09 2°41.14 93 0.5 46 21.9
2003-09-08 14:06:51 51°20.09 2°41.14 97 0.4 47 22.4
2003-09-08 14:07:53 51°20.1 2°41.15 94.4 0.5 41 -999
2003-09-08 14:08:53 51°20.1 2°41.16 93.3 0.4 44 23.3
2003-09-08 14:09:53 51°20.11 2°41.17 97.5 0.4 45 22.9
2003-09-08 14:10:53 51°20.11 2°41.18 103.5 0.3 57 22.6
2003-09-08 14:11:53 51°20.11 2°41.18 108.2 0.3 62 22.2
2003-09-08 14:12:53 51°20.12 2°41.19 110.7 0.3 69 22.3
2003-09-08 14:13:53 51°20.12 2°41.19 111.5 0.2 77 22.3
2003-09-08 14:14:53 51°20.12 2°41.24 88.9 4.1 78 21.9
2003-09-08 14:15:53 51°20.18 2°41.31 10.9 5.2 3 21.8
2003-09-08 14:16:53 51°20.26 2°41.3 3.3 2.9 357 20.8
2003-09-08 14:17:53 51°20.27 2°41.29 20.8 0.6 310 -999
2003-09-08 14:18:51 51°20.27 2°41.28 15.3 0.6 314 20.9
2003-09-08 14:19:54 51°20.28 2°41.27 9.2 0.6 321 20.6
2003-09-08 14:20:54 51°20.29 2°41.26 4 0.6 315 20.6
2003-09-08 14:21:54 51°20.29 2°41.25 356.5 0.6 311 20.7
2003-09-08 14:22:54 51°20.3 2°41.23 345.1 0.6 296 20.7
2003-09-08 14:23:54 51°20.3 2°41.22 333.1 0.5 291 21.3
2003-09-08 14:24:54 51°20.3 2°41.21 319.8 0.6 285 20.9
2003-09-08 14:25:54 51°20.31 2°41.19 309.2 0.6 281 21.3
2003-09-08 14:26:54 51°20.31 2°41.18 302.1 0.6 285 22
2003-09-08 14:27:54 51°20.31 2°41.15 307 2 301 22.8
2003-09-08 14:28:54 51°20.39 2°41.14 35.3 6.8 37 24.5
2003-09-08 14:29:54 51°20.39 2°41.36 105.6 11.1 102 21
2003-09-08 14:30:54 51°20.33 2°41.68 116.2 13 114 20.7
2003-09-08 14:31:54 51°20.24 2°42 116 13.1 113 18.4
2003-09-08 14:32:54 51°20.13 2°42.3 127 13.2 124 22.9
2003-09-08 14:33:54 51°20.01 2°42.59 126.1 13.3 123 25.3
2003-09-08 14:34:54 51°19.89 2°42.89 126.1 13.4 123 26.4
2003-09-08 14:35:54 51°19.77 2°43.19 125 13.4 122 26.3
2003-09-08 14:36:54 51°19.66 2°43.49 125 13.3 121 25.6
2003-09-08 14:37:54 51°19.54 2°43.79 125.5 13.4 123 24.5
2003-09-08 14:38:52 51°19.43 2°44.09 125.1 13.4 121 23.4
2003-09-08 14:39:54 51°19.31 2°44.41 125.6 13.4 121 22.2
2003-09-08 14:40:54 51°19.2 2°44.7 126.2 13.2 123 17.7
2003-09-08 14:41:54 51°19.08 2°45 125.8 13 122 12.4
2003-09-08 14:42:54 51°18.96 2°45.29 124.5 13.2 122 15.7
2003-09-08 14:43:54 51°18.85 2°45.59 125.1 13.3 122 20.1
2003-09-08 14:44:54 51°18.73 2°45.89 125 13.3 122 20.7
2003-09-08 14:45:54 51°18.61 2°46.19 125.4 13.3 122 20.7
2003-09-08 14:46:54 51°18.5 2°46.49 125.3 13.3 122 19.2
2003-09-08 14:47:54 51°18.38 2°46.79 124.9 13.2 122 18.5
2003-09-08 14:48:54 51°18.26 2°47.09 125 13.2 122 16.7
2003-09-08 14:49:54 51°18.14 2°47.38 125.2 13.1 123 13
2003-09-08 14:50:54 51°18.03 2°47.67 124.8 13 122 11.8
2003-09-08 14:51:54 51°17.91 2°47.96 126.2 13 123 10.3
2003-09-08 14:52:54 51°17.8 2°48.26 121 13.1 117 10.4
2003-09-08 14:53:54 51°17.71 2°48.57 118.6 13 116 9.8
2003-09-08 14:54:54 51°17.62 2°48.89 117 13.2 114 12.2
2003-09-08 14:55:54 51°17.53 2°49.2 118.8 13 116 11.5
2003-09-08 14:56:54 51°17.44 2°49.52 116.8 13 114 12.8
2003-09-08 14:57:54 51°17.34 2°49.83 116.4 13.2 114 12.3
2003-09-08 14:58:54 51°17.26 2°50.15 115.9 12.9 113 10.3
2003-09-08 14:59:52 51°17.17 2°50.45 118 13 116 9.5
2003-09-08 15:00:54 51°17.07 2°50.77 116.8 12.4 115 8.6
2003-09-08 15:01:54 51°16.97 2°51.07 126.1 13.2 125 9.8
2003-09-08 15:02:54 51°16.83 2°51.34 137.6 13.3 138 10.9
2003-09-08 15:03:54 51°16.65 2°51.57 139.8 13.3 137 12
2003-09-08 15:04:54 51°16.49 2°51.8 139.3 13.2 137 10.5
2003-09-08 15:05:52 51°16.33 2°52.03 139.1 13.3 137 12.3
2003-09-08 15:06:54 51°16.16 2°52.28 140.1 13.4 140 12.7
2003-09-08 15:07:54 51°16 2°52.51 140.2 13.3 141 12.6
2003-09-08 15:08:54 51°15.82 2°52.72 145.8 13.3 147 12.1
2003-09-08 15:09:54 51°15.63 2°52.91 149.8 13.4 149 11.6
2003-09-08 15:10:54 51°15.44 2°53.09 147.9 13.4 147 11.1
2003-09-08 15:11:54 51°15.27 2°53.31 139.9 13.2 141 10.3
2003-09-08 15:12:54 51°15.1 2°53.53 140.8 13.1 142 9.6
2003-09-08 15:13:54 51°14.93 2°53.75 141.6 13.2 141 9.5
2003-09-08 15:14:54 51°14.78 2°54 127 12.7 127 9.5
2003-09-08 15:15:54 51°14.66 2°54.27 124.5 12.3 124 10.3
2003-09-08 15:16:54 51°14.55 2°54.55 119.1 12.2 120 10.7
2003-09-08 15:17:54 51°14.44 2°54.82 121.2 12.2 123 10.8
2003-09-08 15:18:54 51°14.35 2°55.07 117.6 8.6 116 11
2003-09-08 15:19:54 51°14.29 2°55.21 138.7 5.1 137 11.2
2003-09-08 15:20:54 51°14.24 2°55.28 141.8 3.8 139 11.1
2003-09-08 15:21:54 51°14.2 2°55.35 140 3.3 139 10.7
2003-09-08 15:22:54 51°14.15 2°55.39 157.9 3.4 155 10.5
2003-09-08 15:23:54 51°14.09 2°55.43 161.1 3.5 159 10.2
2003-09-08 15:24:54 51°14.04 2°55.46 159 4.4 157 10.2
2003-09-08 15:25:54 51°13.93 2°55.54 158.4 7.7 155 10.9
2003-09-08 15:26:54 51°13.82 2°55.62 157.1 6.2 152 10.9
2003-09-08 15:27:54 51°13.75 2°55.72 136.8 5.6 133 10.4
2003-09-08 15:28:54 51°13.69 2°55.83 130.8 5.5 127 10.4
2003-09-08 15:29:54 51°13.65 2°55.94 121.1 4.4 117 10.2
2003-09-08 15:30:54 51°13.62 2°56.04 116.1 3.7 114 9.4
2003-09-08 15:31:54 51°13.6 2°56.1 119.7 1.3 118 7.1
2003-09-08 15:32:54 51°13.59 2°56.11 129 0.4 141 7.1
2003-09-08 15:33:58 51°13.6 2°56.11 124.1 0.1 3 -999
2003-09-08 15:34:58 51°13.6 2°56.11 127.7   28 -999
2003-09-08 15:35:58 51°13.6 2°56.11 127.8 0.1 219 -999